首页
METAR-TAF:

METAR-TAF

机场 :

開羅國際機場

开罗, 埃及

纬度: 30-08N, 经度: 031-24E, 海拔: 64米

当前天气观测

该预报发布于32分钟前的11:00 UTC
风速10节,风向北转西北
温度 33°C
湿度 36%
气压 1007 hPa
能见度10公里或以上
1500米以下无云,无积雨云

METAR: HECA 131100Z 34010KT CAVOK 33/16 Q1007 NOSIG

时间: 13:32 (11:32 UTC)

预报

该预报发布于6小时和32分钟前的05:00 UTC
预报有效从13日的 06点(UTC)到 14日的 12点(UTC)
风速10节,风向
能见度10公里或以上
1500米以下无云,无积雨云

TAF: HECA 130500Z 1306/1412 36010KT CAVOK

超过4000个机场的气象观测和天气预报(METAR&TAF报告)。

可查询的气象台以黄色和红色小点在地图上表示。

将鼠标移到小点上方,可查看气象台名称。

然后点击查看天气观测和预报。

如需切换地图:点击带黑十字的绿色按钮放大地图;点击带横线的绿色按钮缩小地图;或者点击绿色箭头查看邻近地区的地图。


METAR-TAF: